< < Back
Terminal Aerodrome Forecast


Current Version              Previous Versions:   1  2  3  4  5  6  7  8  9  

Terminal Aerodrome Forecast

165
FTUS42 KTAE 181100
TAFABY
TAF
KABY 181120Z 1812/1912 06010G20KT 3SM +RA SCT007 BKN010CB
     FM190400 02010G20KT 3SM -DZ BR BKN007=



Latest METAR

516
SAUS70 KWBC 181300 RRC
MTRABY
METAR KABY 181253Z 04008KT 2SM RA BR BKN014 OVC020 13/12 A3023 RMK AO2
SLP235 P0016 T01280117 $


USA.gov is the U.S. government's official web portal to all federal, state and local government web resources and services.